• Join FlightAware (Why Join?)
  • Login
  • US Flag 
02:53PM EST


 

Airport Tracker/Info


-or-


 

Live Flight TrackerFlight Track Log ✈ SWA3313 ✈ 19-Apr-2013 ✈ KMHT - KBWI

Flight Track Log - Related Links

Times and Time Zones

All times are in EDT time to prevent confusion due to time zone crossing. See the SWA3313 flight status page for this flight to view local times or setup timezone preferences in your user account.

Time Position Orientation Groundspeed Altitude Reporting Facility
EDT Latitude Longitude Course Direction KTS MPH feet Rate Location/Type
05:51PM 42.9167 -71.4333 180° South 154 177 900  Level KA90
05:51PM 42.8833 -71.4333 180° South 165 190 2,400 1,440 Climbing KA90
05:52PM 42.8667 -71.4833 246° West 227 261 3,500 1,740 Climbing KA90
05:53PM 42.8781 -71.5192 293° West 297 342 4,900 3,240 Climbing Boston Center
05:54PM 42.9406 -71.4956 15° North 341 392 8,100 3,120 Climbing Boston Center
05:55PM 42.9850 -71.3475 68° East 339 390 11,200 2,940 Climbing Boston Center
05:56PM 43.0314 -71.2075 66° East 381 438 14,100 2,700 Climbing Boston Center
05:57PM 43.0714 -71.0558 70° East 412 474 16,700 2,640 Climbing Boston Center
05:58PM 43.0383 -70.9231 109° East 405 466 19,400 2,760 Climbing Boston Center
05:59PM 42.9400 -70.8858 165° South 306 352 22,200 2,280 Climbing Boston Center
06:00PM 42.8469 -70.9447 205° Southwest 277 319 24,100 1,680 Climbing Boston Center
06:01PM 42.7436 -70.9983 201° Southwest 339 390 25,700 1,620 Climbing Boston Center
06:02PM 42.6317 -71.0544 200° South 390 449 27,400 1,920 Climbing Boston Center
06:03PM 42.5261 -71.1075 200° South 411 473 29,600 1,320 Climbing Boston Center
06:04PM 42.4225 -71.1689 204° Southwest 411 473 30,000 180 Climbing Boston Center
06:05PM 42.3758 -71.2992 244° Southwest 377 434 30,000  Level Boston Center
06:06PM 42.3336 -71.4403 248° West 383 441 30,000  Level Boston Center
06:07PM 42.2867 -71.5925 247° West 403 464 30,000  Level Boston Center
06:08PM 42.2439 -71.7278 247° West 403 464 30,000  Level Boston Center
06:09PM 42.1967 -71.8600 244° Southwest 398 458 30,000  Level Boston Center
06:10PM 42.1369 -71.9781 236° Southwest 398 458 30,000  Level Boston Center
06:11PM 42.0769 -72.0989 236° Southwest 393 452 30,000  Level Boston Center
06:12PM 42.0125 -72.2139 233° Southwest 393 452 30,000  Level Boston Center
06:13PM 41.9522 -72.3311 235° Southwest 393 452 30,000  Level Boston Center
06:14PM 41.8897 -72.4486 234° Southwest 393 452 30,000  Level Boston Center
06:15PM 41.8272 -72.5656 234° Southwest 393 452 30,000  Level Boston Center
06:16PM 41.7644 -72.6878 235° Southwest 393 452 30,000  Level Boston Center
06:17PM 41.7081 -72.7906 234° Southwest 393 452 30,000  Level Boston Center
06:18PM 41.6450 -72.9069 234° Southwest 398 458 30,000  Level Boston Center
06:19PM 41.5819 -73.0256 235° Southwest 398 458 30,000  Level Boston Center
06:20PM 41.5144 -73.1525 235° Southwest 394 453 30,000  Level Boston Center
06:21PM 41.4533 -73.2683 235° Southwest 388 447 30,000  Level Boston Center
06:23PM 41.3192 -73.5172 234° Southwest 394 453 30,000  Level New York Center
06:24PM 41.2542 -73.6303 233° Southwest 394 453 30,000  Level New York Center
06:25PM 41.1889 -73.7378 231° Southwest 394 453 30,000  Level New York Center
06:26PM 41.1236 -73.8506 232° Southwest 394 453 30,000  Level New York Center
06:27PM 41.0581 -73.9603 232° Southwest 388 447 30,000  Level New York Center
06:28PM 40.9947 -74.0700 233° Southwest 388 447 30,000  Level New York Center
06:29PM 40.9269 -74.1794 231° Southwest 388 447 30,000  Level New York Center
06:30PM 40.8661 -74.2722 229° Southwest 388 447 30,000 -720 Level New York Center
06:31PM 40.8000 -74.3842 232° Southwest 382 440 28,600 -1,020 Descending New York Center
06:32PM 40.7364 -74.4903 232° Southwest 387 445 28,000 -360 Descending New York Center
06:33PM 40.6683 -74.5986 230° Southwest 387 445 27,900 -540 Descending New York Center
06:34PM 40.6064 -74.7072 233° Southwest 387 445 27,000 -960 Descending New York Center
06:35PM 40.5364 -74.8069 227° Southwest 387 445 26,000 -1,020 Descending New York Center
06:36PM 40.4683 -74.9067 228° Southwest 374 430 25,000 -1,020 Descending New York Center
06:37PM 40.4003 -75.0008 227° Southwest 369 425 24,000 -1,020 Descending New York Center
06:38PM 40.3322 -75.0947 226° Southwest 369 425 23,000 -1,020 Descending New York Center
06:39PM 40.2664 -75.1883 227° Southwest 364 419 22,000 -1,680 Descending New York Center
06:40PM 40.1936 -75.2925 228° Southwest 358 412 19,600 -2,280 Descending New York Center
06:41PM 40.1297 -75.3778 226° Southwest 347 399 17,500 -2,040 Descending New York Center
06:42PM 40.0769 -75.4503 226° Southwest 329 379 15,600 -1,740 Descending New York Center
06:43PM 40.0131 -75.5383 227° Southwest 312 359 14,100 -780 Descending New York Center
06:44PM 39.9644 -75.6053 227° Southwest 298 343 14,100  Level New York Center
06:45PM 39.9067 -75.6881 228° Southwest 286 329 14,100  Level New York Center
06:46PM 39.8636 -75.7742 237° Southwest 286 329 14,100  Level New York Center
06:47PM 39.8203 -75.8575 236° Southwest 286 329 14,100 -720 Level New York Center
06:49PM 39.7500 -76.0000 237° Southwest 279 321 12,300 -780 Descending Potomac TRACON
06:50PM 39.7000 -76.0833 232° Southwest 246 283 12,000 -180 Descending Potomac TRACON
06:51PM 39.6667 -76.1500 237° Southwest 235 270 12,000 -660 Level Potomac TRACON
06:52PM 39.6333 -76.2167 237° Southwest 244 281 10,800 -1,320 Descending Potomac TRACON
06:53PM 39.6000 -76.2833 237° Southwest 236 272 9,500 -1,380 Descending Potomac TRACON
06:53PM 39.5667 -76.3500 237° Southwest 221 254 8,400 -1,440 Descending Potomac TRACON
06:55PM 39.5333 -76.4167 237° Southwest 213 245 6,700 -1,680 Descending Potomac TRACON
06:56PM 39.5000 -76.5000 243° Southwest 217 250 4,900 -1,380 Descending Potomac TRACON
06:57PM 39.4667 -76.5667 237° Southwest 228 262 4,000 -480 Descending Potomac TRACON
06:58PM 39.4500 -76.6333 252° West 224 258 4,000  Level Potomac TRACON
06:59PM 39.4167 -76.7000 237° Southwest 220 253 4,000  Level Potomac TRACON
07:00PM 39.4167 -76.7667 270° West 190 219 4,000  Level Potomac TRACON
07:01PM 39.4167 -76.8333 270° West 164 189 4,000 -300 Level Potomac TRACON
07:02PM 39.3833 -76.8500 201° Southwest 149 171 3,400 -480 Descending Potomac TRACON
07:03PM 39.3500 -76.8333 159° South 149 171 3,000 -240 Descending Potomac TRACON
07:04PM 39.3167 -76.8000 142° Southeast 158 182 3,000 -360 Level Potomac TRACON
07:05PM 39.2833 -76.7667 142° Southeast 161 185 2,400 -840 Descending Potomac TRACON
07:06PM 39.2500 -76.7333 142° Southeast 148 170 1,500 -720 Descending Potomac TRACON
07:07PM 39.2167 -76.7000 142° Southeast 126 145 900 -600 Descending Potomac TRACON
07:09PM 39.1754 -76.6683 270° West  Level Estimated
07:16PM 39.1754 -76.6683 270° West  Level Estimated
07:17PM 39.1754 -76.6683 270° West  Level Estimated
07:18PM 39.1754 -76.6683 270° West  Level Estimated
07:19PM 39.1754 -76.6683 270° West  Level Estimated